Decoded Metar for OIZJ (JASK in IRAN) (IATA:N/A) | Meteo·Mobile Aviation Weather
aviador You're here:

OIZJ Decoded Metar

JASK in IRAN
Report Time2019-06-20 06:00:00
UTC Time2019-06-20 06:55:51
Flight Rules ifr IFR
Wind120° at 17 kt
W.Decomp.*RWY 06: 9.3 kt HW 14.3 kt RCW
Visibility3000 m
Phenomena:Sand
Clouds:N/A
Expected CloudBase > 1,600 ft AGL from Temp-Dew spread
CeilingNone
Temp33°C (ISA +18)
Dew Point29°C (80% RH)
Heat Index48.1°C
QNH0998 hPa
Density Alt3,094 ft
Elevation13 ft
Report Wrong Elevation
Raw Report
METAR OIZJ 200600Z 12017KT 3000 SA NSC 33/29 Q0998=####018000243####
SABC40 FBSK 200600

Extra information for OIZJ:More info

Metar Taf Metar & Taf Last 4 Metars F.Rules Stats Wind Profile Meteogram Temp Stats Airport Information Weather charts Add Link Nearby VenuesMetar ALERT Operation Metar Decoded Social comments